sensor_id;sensor_type;location;lat;lon;timestamp;pressure;altitude;pressure_sealevel;temperature;humidity
70217;BME280;65567;55.684;37.570;2023-08-06T00:00:22;99440.34;;;27.80;45.53
70217;BME280;65567;55.684;37.570;2023-08-06T00:02:48;99436.84;;;27.79;45.50
70217;BME280;65567;55.684;37.570;2023-08-06T00:05:15;99440.34;;;27.80;45.73
70217;BME280;65567;55.684;37.570;2023-08-06T00:07:47;99438.03;;;27.77;45.69
70217;BME280;65567;55.684;37.570;2023-08-06T00:10:15;99445.06;;;27.63;46.07
70217;BME280;65567;55.684;37.570;2023-08-06T00:12:41;99441.16;;;27.50;46.44
70217;BME280;65567;55.684;37.570;2023-08-06T00:15:09;99447.09;;;27.46;46.18
70217;BME280;65567;55.684;37.570;2023-08-06T00:17:36;99455.69;;;27.41;46.74
70217;BME280;65567;55.684;37.570;2023-08-06T00:20:03;99452.81;;;27.43;46.72
70217;BME280;65567;55.684;37.570;2023-08-06T00:22:33;99450.91;;;27.51;46.48
70217;BME280;65567;55.684;37.570;2023-08-06T00:24:59;99448.03;;;27.53;46.17
70217;BME280;65567;55.684;37.570;2023-08-06T00:27:26;99450.41;;;27.48;46.28
70217;BME280;65567;55.684;37.570;2023-08-06T00:29:52;99457.25;;;27.35;46.56
70217;BME280;65567;55.684;37.570;2023-08-06T00:32:18;99455.94;;;27.31;47.05
70217;BME280;65567;55.684;37.570;2023-08-06T00:34:45;99453.88;;;27.33;46.82
70217;BME280;65567;55.684;37.570;2023-08-06T00:37:11;99456.75;;;27.32;46.71
70217;BME280;65567;55.684;37.570;2023-08-06T00:39:37;99447.91;;;27.23;46.92
70217;BME280;65567;55.684;37.570;2023-08-06T00:42:04;99454.88;;;27.17;47.27
70217;BME280;65567;55.684;37.570;2023-08-06T00:44:29;99458.94;;;27.13;47.32
70217;BME280;65567;55.684;37.570;2023-08-06T00:46:56;99462.16;;;27.09;47.20
70217;BME280;65567;55.684;37.570;2023-08-06T00:49:22;99460.66;;;27.06;47.56
70217;BME280;65567;55.684;37.570;2023-08-06T00:51:49;99455.66;;;27.03;47.74
70217;BME280;65567;55.684;37.570;2023-08-06T00:54:16;99453.78;;;27.03;47.78
70217;BME280;65567;55.684;37.570;2023-08-06T00:56:43;99454.16;;;27.00;47.68
70217;BME280;65567;55.684;37.570;2023-08-06T00:59:11;99458.69;;;27.00;47.84
70217;BME280;65567;55.684;37.570;2023-08-06T01:01:37;99457.78;;;27.08;47.51
70217;BME280;65567;55.684;37.570;2023-08-06T01:04:03;99457.38;;;27.19;47.36
70217;BME280;65567;55.684;37.570;2023-08-06T01:06:44;99457.38;;;27.19;47.35
70217;BME280;65567;55.684;37.570;2023-08-06T01:09:43;99462.53;;;27.06;47.63
70217;BME280;65567;55.684;37.570;2023-08-06T01:14:52;99458.81;;;26.83;48.18
70217;BME280;65567;55.684;37.570;2023-08-06T01:17:20;99459.22;;;26.72;48.48
70217;BME280;65567;55.684;37.570;2023-08-06T01:19:47;99462.75;;;26.64;48.49
70217;BME280;65567;55.684;37.570;2023-08-06T01:22:12;99455.75;;;26.55;48.83
70217;BME280;65567;55.684;37.570;2023-08-06T01:24:40;99463.69;;;26.48;48.98
70217;BME280;65567;55.684;37.570;2023-08-06T01:27:23;99468.06;;;26.41;49.30
70217;BME280;65567;55.684;37.570;2023-08-06T01:30:06;99461.06;;;26.32;49.38
70217;BME280;65567;55.684;37.570;2023-08-06T01:32:34;99460.94;;;26.25;49.73
70217;BME280;65567;55.684;37.570;2023-08-06T01:35:02;99466.66;;;26.22;49.83
70217;BME280;65567;55.684;37.570;2023-08-06T01:37:29;99470.00;;;26.24;49.74
70217;BME280;65567;55.684;37.570;2023-08-06T01:39:55;99467.84;;;26.19;49.61
70217;BME280;65567;55.684;37.570;2023-08-06T01:42:21;99475.72;;;26.21;49.52
70217;BME280;65567;55.684;37.570;2023-08-06T01:44:47;99478.72;;;26.18;49.56
70217;BME280;65567;55.684;37.570;2023-08-06T01:47:13;99477.09;;;26.17;49.76
70217;BME280;65567;55.684;37.570;2023-08-06T01:49:40;99474.22;;;26.18;49.65
70217;BME280;65567;55.684;37.570;2023-08-06T01:52:06;99479.75;;;26.17;49.72
70217;BME280;65567;55.684;37.570;2023-08-06T01:54:33;99473.69;;;26.23;49.65
70217;BME280;65567;55.684;37.570;2023-08-06T01:56:59;99478.84;;;26.33;49.35
70217;BME280;65567;55.684;37.570;2023-08-06T01:59:25;99482.53;;;26.40;49.29
70217;BME280;65567;55.684;37.570;2023-08-06T02:01:53;99473.06;;;26.52;48.75
70217;BME280;65567;55.684;37.570;2023-08-06T02:04:19;99476.56;;;26.61;48.80
70217;BME280;65567;55.684;37.570;2023-08-06T02:06:45;99489.94;;;26.69;48.61
70217;BME280;65567;55.684;37.570;2023-08-06T02:09:12;99486.03;;;26.80;48.28
70217;BME280;65567;55.684;37.570;2023-08-06T02:11:38;99489.03;;;26.85;47.85
70217;BME280;65567;55.684;37.570;2023-08-06T02:14:04;99484.75;;;26.99;47.89
70217;BME280;65567;55.684;37.570;2023-08-06T02:16:30;99486.47;;;27.15;47.32
70217;BME280;65567;55.684;37.570;2023-08-06T02:18:56;99484.47;;;27.32;47.10
70217;BME280;65567;55.684;37.570;2023-08-06T02:21:22;99492.53;;;27.41;46.79
70217;BME280;65567;55.684;37.570;2023-08-06T02:23:49;99490.16;;;27.46;46.66
70217;BME280;65567;55.684;37.570;2023-08-06T02:26:15;99499.72;;;27.48;46.53
70217;BME280;65567;55.684;37.570;2023-08-06T02:28:42;99504.91;;;27.65;46.18
70217;BME280;65567;55.684;37.570;2023-08-06T02:31:08;99502.28;;;27.80;45.94
70217;BME280;65567;55.684;37.570;2023-08-06T02:33:34;99500.56;;;28.02;45.54
70217;BME280;65567;55.684;37.570;2023-08-06T02:36:04;99498.25;;;28.14;45.25
70217;BME280;65567;55.684;37.570;2023-08-06T02:38:32;99499.34;;;28.34;44.83
70217;BME280;65567;55.684;37.570;2023-08-06T02:40:58;99504.72;;;28.49;44.17
70217;BME280;65567;55.684;37.570;2023-08-06T02:43:24;99501.72;;;28.59;44.25
70217;BME280;65567;55.684;37.570;2023-08-06T02:45:57;99501.56;;;28.76;43.68
70217;BME280;65567;55.684;37.570;2023-08-06T02:48:27;99493.72;;;28.81;43.72
70217;BME280;65567;55.684;37.570;2023-08-06T02:50:56;99497.72;;;29.07;43.18
70217;BME280;65567;55.684;37.570;2023-08-06T02:53:23;99496.97;;;29.34;42.71
70217;BME280;65567;55.684;37.570;2023-08-06T02:55:49;99497.38;;;29.60;42.50
70217;BME280;65567;55.684;37.570;2023-08-06T02:58:16;99497.69;;;30.00;41.66
70217;BME280;65567;55.684;37.570;2023-08-06T03:00:46;99491.28;;;30.43;40.78
70217;BME280;65567;55.684;37.570;2023-08-06T03:03:12;99493.13;;;30.84;40.03
70217;BME280;65567;55.684;37.570;2023-08-06T03:05:38;99487.78;;;31.11;39.18
70217;BME280;65567;55.684;37.570;2023-08-06T03:08:04;99486.75;;;31.19;39.25
70217;BME280;65567;55.684;37.570;2023-08-06T03:10:30;99489.66;;;31.17;38.88
70217;BME280;65567;55.684;37.570;2023-08-06T03:12:56;99495.72;;;31.12;39.18
70217;BME280;65567;55.684;37.570;2023-08-06T03:15:22;99491.34;;;31.05;39.06
70217;BME280;65567;55.684;37.570;2023-08-06T03:17:48;99491.56;;;31.10;39.05
70217;BME280;65567;55.684;37.570;2023-08-06T03:20:15;99488.22;;;31.21;39.00
70217;BME280;65567;55.684;37.570;2023-08-06T03:22:41;99482.19;;;31.46;38.67
70217;BME280;65567;55.684;37.570;2023-08-06T03:25:07;99491.56;;;31.77;38.13
70217;BME280;65567;55.684;37.570;2023-08-06T03:27:33;99496.75;;;31.99;37.78
70217;BME280;65567;55.684;37.570;2023-08-06T03:29:59;99492.16;;;32.12;37.62
70217;BME280;65567;55.684;37.570;2023-08-06T03:32:26;99492.34;;;32.24;37.13
70217;BME280;65567;55.684;37.570;2023-08-06T03:34:53;99497.50;;;32.39;36.96
70217;BME280;65567;55.684;37.570;2023-08-06T03:37:20;99465.84;;;32.72;36.20
70217;BME280;65567;55.684;37.570;2023-08-06T03:39:47;99488.13;;;33.19;35.53
70217;BME280;65567;55.684;37.570;2023-08-06T03:42:14;99497.81;;;33.40;34.98
70217;BME280;65567;55.684;37.570;2023-08-06T03:44:40;99493.09;;;33.54;35.08
70217;BME280;65567;55.684;37.570;2023-08-06T03:47:07;99489.91;;;33.57;35.21
70217;BME280;65567;55.684;37.570;2023-08-06T03:49:33;99492.34;;;33.66;34.77
70217;BME280;65567;55.684;37.570;2023-08-06T03:51:59;99493.34;;;33.97;34.21
70217;BME280;65567;55.684;37.570;2023-08-06T03:54:24;99499.53;;;34.04;33.89
70217;BME280;65567;55.684;37.570;2023-08-06T03:56:50;99496.28;;;33.95;34.45
70217;BME280;65567;55.684;37.570;2023-08-06T03:59:16;99487.47;;;34.00;34.21
70217;BME280;65567;55.684;37.570;2023-08-06T04:01:42;99494.47;;;34.07;34.00
70217;BME280;65567;55.684;37.570;2023-08-06T04:04:11;99484.38;;;33.96;34.58
70217;BME280;65567;55.684;37.570;2023-08-06T04:06:37;99491.69;;;34.14;33.95
70217;BME280;65567;55.684;37.570;2023-08-06T04:09:04;99488.91;;;34.21;34.08
70217;BME280;65567;55.684;37.570;2023-08-06T04:11:30;99495.88;;;34.35;33.89
70217;BME280;65567;55.684;37.570;2023-08-06T04:13:56;99486.47;;;34.50;33.14
70217;BME280;65567;55.684;37.570;2023-08-06T04:16:22;99482.81;;;34.74;33.20
70217;BME280;65567;55.684;37.570;2023-08-06T04:18:48;99482.28;;;34.84;32.88
70217;BME280;65567;55.684;37.570;2023-08-06T04:21:14;99480.41;;;34.97;32.48
70217;BME280;65567;55.684;37.570;2023-08-06T04:23:40;99473.69;;;35.11;32.61
70217;BME280;65567;55.684;37.570;2023-08-06T04:26:06;99479.34;;;35.40;32.39
70217;BME280;65567;55.684;37.570;2023-08-06T04:28:32;99477.72;;;35.63;31.50
70217;BME280;65567;55.684;37.570;2023-08-06T04:30:59;99483.97;;;35.75;31.59
70217;BME280;65567;55.684;37.570;2023-08-06T04:33:25;99479.81;;;35.84;31.17
70217;BME280;65567;55.684;37.570;2023-08-06T04:35:55;99478.91;;;35.91;31.04
70217;BME280;65567;55.684;37.570;2023-08-06T04:38:23;99477.47;;;36.00;31.17
70217;BME280;65567;55.684;37.570;2023-08-06T04:40:51;99483.69;;;36.36;30.61
70217;BME280;65567;55.684;37.570;2023-08-06T04:43:17;99483.72;;;36.65;30.34
70217;BME280;65567;55.684;37.570;2023-08-06T04:45:51;99477.00;;;36.84;29.92
70217;BME280;65567;55.684;37.570;2023-08-06T04:48:19;99478.06;;;37.12;29.91
70217;BME280;65567;55.684;37.570;2023-08-06T04:50:47;99486.50;;;37.62;29.44
70217;BME280;65567;55.684;37.570;2023-08-06T04:53:14;99485.13;;;37.98;28.34
70217;BME280;65567;55.684;37.570;2023-08-06T04:55:41;99483.63;;;38.08;28.54
70217;BME280;65567;55.684;37.570;2023-08-06T04:58:10;99478.34;;;38.45;27.87
70217;BME280;65567;55.684;37.570;2023-08-06T05:00:36;99487.88;;;38.65;27.19
70217;BME280;65567;55.684;37.570;2023-08-06T05:03:02;99475.25;;;38.86;27.08
70217;BME280;65567;55.684;37.570;2023-08-06T05:05:28;99476.09;;;38.87;27.24
70217;BME280;65567;55.684;37.570;2023-08-06T05:07:55;99476.00;;;39.09;27.10
70217;BME280;65567;55.684;37.570;2023-08-06T05:10:24;99469.16;;;39.39;26.43
70217;BME280;65567;55.684;37.570;2023-08-06T05:12:50;99470.53;;;39.41;26.26
70217;BME280;65567;55.684;37.570;2023-08-06T05:15:16;99472.53;;;39.19;26.07
70217;BME280;65567;55.684;37.570;2023-08-06T05:17:42;99463.34;;;39.35;26.03
70217;BME280;65567;55.684;37.570;2023-08-06T05:20:10;99465.53;;;39.33;25.49
70217;BME280;65567;55.684;37.570;2023-08-06T05:22:37;99460.09;;;39.38;25.86
70217;BME280;65567;55.684;37.570;2023-08-06T05:25:04;99462.53;;;39.72;25.63
70217;BME280;65567;55.684;37.570;2023-08-06T05:27:31;99459.09;;;39.97;25.38
70217;BME280;65567;55.684;37.570;2023-08-06T05:29:57;99463.16;;;39.90;25.60
70217;BME280;65567;55.684;37.570;2023-08-06T05:32:23;99460.97;;;39.87;25.52
70217;BME280;65567;55.684;37.570;2023-08-06T05:34:51;99454.34;;;39.77;26.03
70217;BME280;65567;55.684;37.570;2023-08-06T05:37:20;99450.16;;;39.64;26.12
70217;BME280;65567;55.684;37.570;2023-08-06T05:39:47;99458.41;;;39.70;26.13
70217;BME280;65567;55.684;37.570;2023-08-06T05:42:15;99454.44;;;39.50;26.28
70217;BME280;65567;55.684;37.570;2023-08-06T05:44:41;99456.19;;;39.29;26.42
70217;BME280;65567;55.684;37.570;2023-08-06T05:47:06;99461.75;;;38.79;27.26
70217;BME280;65567;55.684;37.570;2023-08-06T05:49:33;99462.16;;;38.93;26.64
70217;BME280;65567;55.684;37.570;2023-08-06T05:51:59;99455.00;;;39.20;26.48
70217;BME280;65567;55.684;37.570;2023-08-06T05:54:26;99447.53;;;39.42;26.45
70217;BME280;65567;55.684;37.570;2023-08-06T05:56:53;99454.34;;;39.77;26.00
70217;BME280;65567;55.684;37.570;2023-08-06T05:59:20;99456.16;;;40.09;25.54
70217;BME280;65567;55.684;37.570;2023-08-06T06:01:47;99454.97;;;39.95;25.80
70217;BME280;65567;55.684;37.570;2023-08-06T06:04:12;99460.41;;;39.85;25.46
70217;BME280;65567;55.684;37.570;2023-08-06T06:06:39;99453.00;;;39.85;25.46
70217;BME280;65567;55.684;37.570;2023-08-06T06:09:07;99445.19;;;40.09;25.16
70217;BME280;65567;55.684;37.570;2023-08-06T06:11:33;99453.50;;;40.35;25.16
70217;BME280;65567;55.684;37.570;2023-08-06T06:13:59;99450.84;;;40.61;24.40
70217;BME280;65567;55.684;37.570;2023-08-06T06:16:25;99451.59;;;40.41;24.77
70217;BME280;65567;55.684;37.570;2023-08-06T06:18:51;99451.13;;;39.96;25.14
70217;BME280;65567;55.684;37.570;2023-08-06T06:21:18;99453.31;;;39.94;25.57
70217;BME280;65567;55.684;37.570;2023-08-06T06:23:44;99450.16;;;40.18;24.98
70217;BME280;65567;55.684;37.570;2023-08-06T06:26:12;99449.34;;;40.22;24.77
70217;BME280;65567;55.684;37.570;2023-08-06T06:28:38;99448.50;;;40.17;24.90
70217;BME280;65567;55.684;37.570;2023-08-06T06:31:05;99445.22;;;40.20;25.14
70217;BME280;65567;55.684;37.570;2023-08-06T06:33:32;99449.94;;;40.29;24.67
70217;BME280;65567;55.684;37.570;2023-08-06T06:35:58;99441.41;;;40.31;24.94
70217;BME280;65567;55.684;37.570;2023-08-06T06:38:25;99436.44;;;40.28;25.20
70217;BME280;65567;55.684;37.570;2023-08-06T06:40:58;99450.59;;;39.99;24.97
70217;BME280;65567;55.684;37.570;2023-08-06T06:43:25;99433.97;;;39.68;25.25
70217;BME280;65567;55.684;37.570;2023-08-06T06:45:59;99442.59;;;39.92;25.55
70217;BME280;65567;55.684;37.570;2023-08-06T06:48:31;99446.91;;;40.26;25.22
70217;BME280;65567;55.684;37.570;2023-08-06T06:50:58;99436.44;;;40.18;25.04
70217;BME280;65567;55.684;37.570;2023-08-06T06:53:24;99445.47;;;40.13;25.22
70217;BME280;65567;55.684;37.570;2023-08-06T06:56:04;99432.22;;;39.94;25.57
70217;BME280;65567;55.684;37.570;2023-08-06T06:58:32;99432.47;;;39.88;25.62
70217;BME280;65567;55.684;37.570;2023-08-06T07:00:59;99433.53;;;39.87;25.84
70217;BME280;65567;55.684;37.570;2023-08-06T07:03:28;99430.06;;;39.59;26.29
70217;BME280;65567;55.684;37.570;2023-08-06T07:05:57;99425.22;;;39.66;26.53
70217;BME280;65567;55.684;37.570;2023-08-06T07:08:25;99430.75;;;39.76;26.15
70217;BME280;65567;55.684;37.570;2023-08-06T07:10:51;99435.19;;;39.88;26.26
70217;BME280;65567;55.684;37.570;2023-08-06T07:13:25;99441.78;;;39.87;25.74
70217;BME280;65567;55.684;37.570;2023-08-06T07:15:51;99433.00;;;39.90;25.79
70217;BME280;65567;55.684;37.570;2023-08-06T07:18:18;99424.16;;;39.72;25.87
70217;BME280;65567;55.684;37.570;2023-08-06T07:21:05;99425.81;;;39.78;26.06
70217;BME280;65567;55.684;37.570;2023-08-06T07:23:31;99422.53;;;39.81;26.02
70217;BME280;65567;55.684;37.570;2023-08-06T07:25:56;99419.84;;;39.92;25.81
70217;BME280;65567;55.684;37.570;2023-08-06T07:28:22;99429.72;;;39.93;26.09
70217;BME280;65567;55.684;37.570;2023-08-06T07:30:48;99426.56;;;39.63;26.18
70217;BME280;65567;55.684;37.570;2023-08-06T07:33:14;99417.16;;;39.16;26.65
70217;BME280;65567;55.684;37.570;2023-08-06T07:35:41;99423.06;;;39.30;26.94
70217;BME280;65567;55.684;37.570;2023-08-06T07:38:08;99417.66;;;39.46;26.72
70217;BME280;65567;55.684;37.570;2023-08-06T07:40:39;99419.72;;;39.66;26.85
70217;BME280;65567;55.684;37.570;2023-08-06T07:43:07;99418.38;;;39.69;26.35
70217;BME280;65567;55.684;37.570;2023-08-06T07:45:36;99415.91;;;39.67;26.45
70217;BME280;65567;55.684;37.570;2023-08-06T07:48:06;99410.97;;;39.74;25.89
70217;BME280;65567;55.684;37.570;2023-08-06T07:50:32;99422.34;;;39.13;27.09
70217;BME280;65567;55.684;37.570;2023-08-06T07:52:59;99423.78;;;38.88;27.46
70217;BME280;65567;55.684;37.570;2023-08-06T07:55:27;99415.00;;;39.19;26.85
70217;BME280;65567;55.684;37.570;2023-08-06T07:57:53;99414.25;;;39.28;26.58
70217;BME280;65567;55.684;37.570;2023-08-06T08:00:20;99418.06;;;39.27;26.72
70217;BME280;65567;55.684;37.570;2023-08-06T08:02:46;99413.25;;;39.07;27.00
70217;BME280;65567;55.684;37.570;2023-08-06T08:05:13;99416.19;;;39.28;26.81
70217;BME280;65567;55.684;37.570;2023-08-06T08:07:39;99413.09;;;39.62;26.19
70217;BME280;65567;55.684;37.570;2023-08-06T08:10:08;99418.72;;;39.83;26.02
70217;BME280;65567;55.684;37.570;2023-08-06T08:12:36;99398.81;;;39.60;26.00
70217;BME280;65567;55.684;37.570;2023-08-06T08:15:05;99398.19;;;39.42;26.55
70217;BME280;65567;55.684;37.570;2023-08-06T08:17:32;99401.53;;;39.55;26.73
70217;BME280;65567;55.684;37.570;2023-08-06T08:20:05;99404.44;;;39.80;26.08
70217;BME280;65567;55.684;37.570;2023-08-06T08:22:31;99405.78;;;39.78;25.93
70217;BME280;65567;55.684;37.570;2023-08-06T08:24:58;99395.09;;;39.76;25.49
70217;BME280;65567;55.684;37.570;2023-08-06T08:27:24;99405.03;;;39.98;25.22
70217;BME280;65567;55.684;37.570;2023-08-06T08:29:50;99396.06;;;40.08;25.44
70217;BME280;65567;55.684;37.570;2023-08-06T08:32:16;99398.03;;;40.28;25.14
70217;BME280;65567;55.684;37.570;2023-08-06T08:34:42;99391.53;;;40.55;24.91
70217;BME280;65567;55.684;37.570;2023-08-06T08:37:09;99387.09;;;40.48;24.83
70217;BME280;65567;55.684;37.570;2023-08-06T08:39:35;99409.00;;;40.33;24.78
70217;BME280;65567;55.684;37.570;2023-08-06T08:42:01;99401.22;;;40.04;25.64
70217;BME280;65567;55.684;37.570;2023-08-06T08:44:30;99378.66;;;39.81;25.48
70217;BME280;65567;55.684;37.570;2023-08-06T08:46:57;99385.72;;;39.24;26.38
70217;BME280;65567;55.684;37.570;2023-08-06T08:49:26;99379.78;;;39.00;26.68
70217;BME280;65567;55.684;37.570;2023-08-06T08:51:54;99375.97;;;39.06;26.96
70217;BME280;65567;55.684;37.570;2023-08-06T08:54:23;99379.19;;;39.30;26.70
70217;BME280;65567;55.684;37.570;2023-08-06T08:56:49;99398.09;;;39.27;26.57
70217;BME280;65567;55.684;37.570;2023-08-06T08:59:18;99388.06;;;39.10;26.63
70217;BME280;65567;55.684;37.570;2023-08-06T09:01:45;99385.47;;;38.93;26.95
70217;BME280;65567;55.684;37.570;2023-08-06T09:04:12;99369.19;;;38.76;27.07
70217;BME280;65567;55.684;37.570;2023-08-06T09:06:42;99367.41;;;38.97;26.75
70217;BME280;65567;55.684;37.570;2023-08-06T09:09:09;99382.25;;;39.39;26.26
70217;BME280;65567;55.684;37.570;2023-08-06T09:11:43;99375.72;;;39.45;26.06
70217;BME280;65567;55.684;37.570;2023-08-06T09:14:11;99370.16;;;39.35;26.70
70217;BME280;65567;55.684;37.570;2023-08-06T09:16:37;99381.91;;;39.73;25.84
70217;BME280;65567;55.684;37.570;2023-08-06T09:19:12;99375.50;;;40.10;25.66
70217;BME280;65567;55.684;37.570;2023-08-06T09:21:41;99373.91;;;40.40;24.81
70217;BME280;65567;55.684;37.570;2023-08-06T09:24:11;99354.97;;;40.80;24.63
70217;BME280;65567;55.684;37.570;2023-08-06T09:26:39;99371.72;;;40.37;25.09
70217;BME280;65567;55.684;37.570;2023-08-06T09:29:09;99363.72;;;40.41;24.83
70217;BME280;65567;55.684;37.570;2023-08-06T09:31:43;99366.00;;;40.65;25.09
70217;BME280;65567;55.684;37.570;2023-08-06T09:34:16;99370.09;;;40.83;24.30
70217;BME280;65567;55.684;37.570;2023-08-06T09:36:43;99367.91;;;40.74;24.32
70217;BME280;65567;55.684;37.570;2023-08-06T09:39:15;99367.03;;;40.43;25.01
70217;BME280;65567;55.684;37.570;2023-08-06T09:41:42;99359.34;;;40.35;24.70
70217;BME280;65567;55.684;37.570;2023-08-06T09:44:16;99358.00;;;40.58;24.56
70217;BME280;65567;55.684;37.570;2023-08-06T09:46:53;99350.91;;;40.77;24.81
70217;BME280;65567;55.684;37.570;2023-08-06T09:49:24;99350.34;;;40.80;24.53
70217;BME280;65567;55.684;37.570;2023-08-06T09:51:51;99350.31;;;40.91;24.44
70217;BME280;65567;55.684;37.570;2023-08-06T09:54:19;99355.25;;;40.89;24.89
70217;BME280;65567;55.684;37.570;2023-08-06T09:56:44;99345.59;;;40.19;25.16
70217;BME280;65567;55.684;37.570;2023-08-06T09:59:10;99347.91;;;39.79;26.31
70217;BME280;65567;55.684;37.570;2023-08-06T10:01:39;99337.25;;;39.83;26.05
70217;BME280;65567;55.684;37.570;2023-08-06T10:04:06;99339.16;;;39.83;26.14
70217;BME280;65567;55.684;37.570;2023-08-06T10:06:38;99335.06;;;39.80;25.80
70217;BME280;65567;55.684;37.570;2023-08-06T10:09:05;99328.69;;;39.74;25.69
70217;BME280;65567;55.684;37.570;2023-08-06T10:11:30;99339.06;;;39.62;26.22
70217;BME280;65567;55.684;37.570;2023-08-06T10:14:33;99331.31;;;39.48;26.35
70217;BME280;65567;55.684;37.570;2023-08-06T10:16:59;99326.81;;;39.27;26.24
70217;BME280;65567;55.684;37.570;2023-08-06T10:19:27;99326.16;;;39.14;26.88
70217;BME280;65567;55.684;37.570;2023-08-06T10:22:17;99318.31;;;39.23;26.92
70217;BME280;65567;55.684;37.570;2023-08-06T10:24:53;99317.34;;;39.02;26.83
70217;BME280;65567;55.684;37.570;2023-08-06T10:30:25;99304.34;;;38.55;27.29
70217;BME280;65567;55.684;37.570;2023-08-06T10:32:53;99304.31;;;38.49;27.48
70217;BME280;65567;55.684;37.570;2023-08-06T10:35:45;99320.81;;;38.60;27.68
70217;BME280;65567;55.684;37.570;2023-08-06T10:43:35;99298.41;;;38.63;27.71
70217;BME280;65567;55.684;37.570;2023-08-06T10:46:09;99295.47;;;38.37;28.07
70217;BME280;65567;55.684;37.570;2023-08-06T10:48:41;99307.31;;;38.21;27.99
70217;BME280;65567;55.684;37.570;2023-08-06T10:51:14;99299.03;;;38.15;28.30
70217;BME280;65567;55.684;37.570;2023-08-06T10:53:48;99296.38;;;37.93;28.50
70217;BME280;65567;55.684;37.570;2023-08-06T10:56:22;99301.50;;;37.67;29.02
70217;BME280;65567;55.684;37.570;2023-08-06T10:58:51;99298.22;;;37.43;29.51
70217;BME280;65567;55.684;37.570;2023-08-06T11:01:17;99302.16;;;37.13;29.62
70217;BME280;65567;55.684;37.570;2023-08-06T11:03:45;99312.72;;;36.87;29.95
70217;BME280;65567;55.684;37.570;2023-08-06T11:06:17;99294.56;;;36.64;29.86
70217;BME280;65567;55.684;37.570;2023-08-06T11:08:51;99300.03;;;36.18;30.84
70217;BME280;65567;55.684;37.570;2023-08-06T11:11:18;99302.63;;;35.96;30.89
70217;BME280;65567;55.684;37.570;2023-08-06T11:13:45;99296.59;;;35.82;31.16
70217;BME280;65567;55.684;37.570;2023-08-06T11:16:13;99292.69;;;35.90;31.35
70217;BME280;65567;55.684;37.570;2023-08-06T11:18:41;99312.22;;;35.99;30.76
70217;BME280;65567;55.684;37.570;2023-08-06T11:21:09;99292.53;;;35.97;30.98
70217;BME280;65567;55.684;37.570;2023-08-06T11:23:35;99293.41;;;35.85;31.61
70217;BME280;65567;55.684;37.570;2023-08-06T11:26:01;99287.81;;;35.80;31.68
70217;BME280;65567;55.684;37.570;2023-08-06T11:28:27;99290.13;;;35.71;30.96
70217;BME280;65567;55.684;37.570;2023-08-06T11:30:53;99286.47;;;35.66;31.38
70217;BME280;65567;55.684;37.570;2023-08-06T11:33:21;99286.09;;;35.62;31.26
70217;BME280;65567;55.684;37.570;2023-08-06T11:35:48;99284.91;;;35.70;31.54
70217;BME280;65567;55.684;37.570;2023-08-06T11:38:14;99288.72;;;35.69;31.42
70217;BME280;65567;55.684;37.570;2023-08-06T11:40:44;99281.59;;;35.68;31.43
70217;BME280;65567;55.684;37.570;2023-08-06T11:43:12;99283.09;;;35.47;31.13
70217;BME280;65567;55.684;37.570;2023-08-06T11:45:38;99289.97;;;35.37;31.57
70217;BME280;65567;55.684;37.570;2023-08-06T11:48:05;99274.69;;;35.36;31.61
70217;BME280;65567;55.684;37.570;2023-08-06T11:50:31;99277.75;;;35.40;31.71
70217;BME280;65567;55.684;37.570;2023-08-06T11:53:02;99271.00;;;35.31;32.08
70217;BME280;65567;55.684;37.570;2023-08-06T11:55:28;99283.22;;;35.16;31.88
70217;BME280;65567;55.684;37.570;2023-08-06T11:57:55;99268.31;;;35.07;32.55
70217;BME280;65567;55.684;37.570;2023-08-06T12:00:23;99267.72;;;35.17;31.72
70217;BME280;65567;55.684;37.570;2023-08-06T12:02:50;99273.88;;;35.12;31.99
70217;BME280;65567;55.684;37.570;2023-08-06T12:05:22;99266.53;;;34.89;32.70
70217;BME280;65567;55.684;37.570;2023-08-06T12:07:52;99271.84;;;34.72;33.09
70217;BME280;65567;55.684;37.570;2023-08-06T12:10:20;99263.06;;;34.70;32.75
70217;BME280;65567;55.684;37.570;2023-08-06T12:12:46;99264.16;;;34.57;33.35
70217;BME280;65567;55.684;37.570;2023-08-06T12:15:12;99259.63;;;34.51;33.74
70217;BME280;65567;55.684;37.570;2023-08-06T12:17:38;99258.91;;;34.44;33.86
70217;BME280;65567;55.684;37.570;2023-08-06T12:20:05;99265.63;;;34.41;34.44
70217;BME280;65567;55.684;37.570;2023-08-06T12:22:35;99263.84;;;34.35;34.47
70217;BME280;65567;55.684;37.570;2023-08-06T12:25:03;99259.84;;;34.37;33.93
70217;BME280;65567;55.684;37.570;2023-08-06T12:27:29;99255.38;;;34.43;33.17
70217;BME280;65567;55.684;37.570;2023-08-06T12:29:55;99247.31;;;34.36;33.47
70217;BME280;65567;55.684;37.570;2023-08-06T12:32:20;99241.41;;;34.39;33.77
70217;BME280;65567;55.684;37.570;2023-08-06T12:34:47;99248.50;;;34.52;33.66
70217;BME280;65567;55.684;37.570;2023-08-06T12:37:12;99254.78;;;34.65;33.51
70217;BME280;65567;55.684;37.570;2023-08-06T12:39:38;99247.59;;;34.70;33.31
70217;BME280;65567;55.684;37.570;2023-08-06T12:42:05;99259.91;;;34.85;33.51
70217;BME280;65567;55.684;37.570;2023-08-06T12:44:32;99246.53;;;34.71;33.29
70217;BME280;65567;55.684;37.570;2023-08-06T12:46:58;99250.31;;;34.70;33.92
70217;BME280;65567;55.684;37.570;2023-08-06T12:49:25;99250.75;;;34.67;33.76
70217;BME280;65567;55.684;37.570;2023-08-06T12:51:53;99245.22;;;34.74;33.69
70217;BME280;65567;55.684;37.570;2023-08-06T12:54:20;99239.78;;;34.74;33.22
70217;BME280;65567;55.684;37.570;2023-08-06T12:56:47;99241.22;;;34.77;33.47
70217;BME280;65567;55.684;37.570;2023-08-06T12:59:15;99251.50;;;34.74;33.23
70217;BME280;65567;55.684;37.570;2023-08-06T13:01:42;99239.28;;;34.53;34.19
70217;BME280;65567;55.684;37.570;2023-08-06T13:04:08;99236.41;;;34.24;34.06